00:37
Airports
History
Links
Donate
Help keep this website running!
PayPal
Bitcoin
Information on this page is community maintained and may be outdated or inaccurate and is intended for reference only or PC simulator navigating.
Always use approved charts for navigating.
ENSK
Stokmarknes Skagen
Stokmarknes Skagen (ENSK)
Nordland, Norway (8450)
(C)
Lat/Lng:68° 34' 50.84" N / 15° 1' 15.77" E
68.580788 / 15.021048
Elevation:11'ft 3mMSL
ID / ICAO:ENSK
Runways:1
Longest:(08-26) 917.3m 3,010ft Asphalt
Controlled:Yes
Distance To
Airport ID:
Airport Radio Frequencies
Tower: 120.45
Nearby VORs <50NM
Nearby NDBs
METARUpdated 07-24-17 18:50 GMT
Altimeter: 30.09
Visibility: 6.2 statute miles
Wind: 0 knots (000°)
Temp: 14°c 57°f
Humidity: 82.1%

METAR: ENSK 241850Z 00000KT CAVOK 14/11 Q1019

(Powered by phpweather)
Runway 08 / 26
Dimensions:917.3 x 29.9m 3010' x 98'ft
Surface:Asphalt
Runway 08 [A]Runway 26 [B]
Heading:091°TH 271°TH
Lat:
Lng:
68° 34' 51.26"N
15° 0' 35.09"E
68° 34' 50.41"N
15° 1' 56.46"E
User Notes and Comments
Google Map
Nearby Airports
(U) Svolvaer Helle 25.0 NM
ENSH (WX) SSW 200°
(C) EVENES 42.3 NM
ENEV E 98°
4 Engeloy 42.4 NM
ENEN S 180°
(U) Leknes 46.6 NM
ENLK (WX) SW 230°
(C) ANDOYA 56.6 NM
ENAN NNE 29°
(U) Narvik Framnes 60.7 NM
ENNK (WX) E 99°
(C) BODO 92.3 NM
ENBO S 190°
VFR Chart
Flight Planning at SkyVector.com